sensor_id;sensor_type;location;lat;lon;timestamp;temperature;humidity
19920;DHT22;10122;50.074;19.920;2023-04-25T00:01:01;14.60;99.90
19920;DHT22;10122;50.074;19.920;2023-04-25T00:03:27;14.70;99.90
19920;DHT22;10122;50.074;19.920;2023-04-25T00:05:55;14.60;99.90
19920;DHT22;10122;50.074;19.920;2023-04-25T00:08:22;14.50;99.90
19920;DHT22;10122;50.074;19.920;2023-04-25T00:10:48;14.40;99.90
19920;DHT22;10122;50.074;19.920;2023-04-25T00:13:14;14.20;99.90
19920;DHT22;10122;50.074;19.920;2023-04-25T00:15:43;14.20;99.90
19920;DHT22;10122;50.074;19.920;2023-04-25T00:18:09;14.10;99.90
19920;DHT22;10122;50.074;19.920;2023-04-25T00:20:36;14.00;99.90
19920;DHT22;10122;50.074;19.920;2023-04-25T00:23:02;14.00;99.90
19920;DHT22;10122;50.074;19.920;2023-04-25T00:25:28;14.00;99.90
19920;DHT22;10122;50.074;19.920;2023-04-25T00:27:54;14.00;99.90
19920;DHT22;10122;50.074;19.920;2023-04-25T00:30:20;14.00;99.90
19920;DHT22;10122;50.074;19.920;2023-04-25T00:32:45;14.00;99.90
19920;DHT22;10122;50.074;19.920;2023-04-25T00:35:11;13.90;99.90
19920;DHT22;10122;50.074;19.920;2023-04-25T00:37:37;13.90;99.90
19920;DHT22;10122;50.074;19.920;2023-04-25T00:40:06;13.80;99.90
19920;DHT22;10122;50.074;19.920;2023-04-25T00:42:32;13.70;99.90
19920;DHT22;10122;50.074;19.920;2023-04-25T00:44:59;13.70;99.90
19920;DHT22;10122;50.074;19.920;2023-04-25T00:47:25;13.60;99.90
19920;DHT22;10122;50.074;19.920;2023-04-25T00:49:51;13.70;99.90
19920;DHT22;10122;50.074;19.920;2023-04-25T00:52:19;13.70;99.90
19920;DHT22;10122;50.074;19.920;2023-04-25T00:54:45;13.60;99.90
19920;DHT22;10122;50.074;19.920;2023-04-25T00:57:11;13.60;99.90
19920;DHT22;10122;50.074;19.920;2023-04-25T00:59:37;13.60;99.90
19920;DHT22;10122;50.074;19.920;2023-04-25T01:02:04;13.70;99.90
19920;DHT22;10122;50.074;19.920;2023-04-25T01:04:30;13.70;99.90
19920;DHT22;10122;50.074;19.920;2023-04-25T01:06:56;13.60;99.90
19920;DHT22;10122;50.074;19.920;2023-04-25T01:09:22;13.50;99.90
19920;DHT22;10122;50.074;19.920;2023-04-25T01:11:49;13.50;99.90
19920;DHT22;10122;50.074;19.920;2023-04-25T01:14:15;13.50;99.90
19920;DHT22;10122;50.074;19.920;2023-04-25T01:16:41;13.60;99.90
19920;DHT22;10122;50.074;19.920;2023-04-25T01:19:10;13.50;99.90
19920;DHT22;10122;50.074;19.920;2023-04-25T01:21:39;13.50;99.90
19920;DHT22;10122;50.074;19.920;2023-04-25T01:24:05;13.50;99.90
19920;DHT22;10122;50.074;19.920;2023-04-25T01:26:32;13.50;99.90
19920;DHT22;10122;50.074;19.920;2023-04-25T01:28:59;13.50;99.90
19920;DHT22;10122;50.074;19.920;2023-04-25T01:31:25;13.60;99.90
19920;DHT22;10122;50.074;19.920;2023-04-25T01:33:52;13.50;99.90
19920;DHT22;10122;50.074;19.920;2023-04-25T01:36:18;13.50;99.90
19920;DHT22;10122;50.074;19.920;2023-04-25T01:38:43;13.40;99.90
19920;DHT22;10122;50.074;19.920;2023-04-25T01:41:09;13.30;99.90
19920;DHT22;10122;50.074;19.920;2023-04-25T01:43:35;13.20;99.90
19920;DHT22;10122;50.074;19.920;2023-04-25T01:46:01;13.10;99.90
19920;DHT22;10122;50.074;19.920;2023-04-25T01:48:27;13.20;99.90
19920;DHT22;10122;50.074;19.920;2023-04-25T01:50:52;13.30;99.90
19920;DHT22;10122;50.074;19.920;2023-04-25T01:53:18;13.30;99.90
19920;DHT22;10122;50.074;19.920;2023-04-25T01:55:44;13.20;99.90
19920;DHT22;10122;50.074;19.920;2023-04-25T01:58:10;13.20;99.90
19920;DHT22;10122;50.074;19.920;2023-04-25T02:00:38;13.20;99.90
19920;DHT22;10122;50.074;19.920;2023-04-25T02:03:06;13.20;99.90
19920;DHT22;10122;50.074;19.920;2023-04-25T02:05:38;13.20;99.90
19920;DHT22;10122;50.074;19.920;2023-04-25T02:08:08;13.10;99.90
19920;DHT22;10122;50.074;19.920;2023-04-25T02:10:34;12.90;99.90
19920;DHT22;10122;50.074;19.920;2023-04-25T02:13:01;13.00;99.90
19920;DHT22;10122;50.074;19.920;2023-04-25T02:15:26;12.80;99.90
19920;DHT22;10122;50.074;19.920;2023-04-25T02:17:52;12.70;99.90
19920;DHT22;10122;50.074;19.920;2023-04-25T02:20:21;12.80;99.90
19920;DHT22;10122;50.074;19.920;2023-04-25T02:22:47;12.70;99.90
19920;DHT22;10122;50.074;19.920;2023-04-25T02:25:13;12.70;99.90
19920;DHT22;10122;50.074;19.920;2023-04-25T02:27:39;12.60;99.90
19920;DHT22;10122;50.074;19.920;2023-04-25T02:30:05;12.70;99.90
19920;DHT22;10122;50.074;19.920;2023-04-25T02:32:32;12.70;99.90
19920;DHT22;10122;50.074;19.920;2023-04-25T02:35:00;12.70;99.90
19920;DHT22;10122;50.074;19.920;2023-04-25T02:37:30;12.80;99.90
19920;DHT22;10122;50.074;19.920;2023-04-25T02:39:55;12.90;99.90
19920;DHT22;10122;50.074;19.920;2023-04-25T02:42:21;12.90;99.90
19920;DHT22;10122;50.074;19.920;2023-04-25T02:44:47;12.90;99.90
19920;DHT22;10122;50.074;19.920;2023-04-25T02:47:13;12.90;99.90
19920;DHT22;10122;50.074;19.920;2023-04-25T02:49:38;12.90;99.90
19920;DHT22;10122;50.074;19.920;2023-04-25T02:52:04;12.90;99.90
19920;DHT22;10122;50.074;19.920;2023-04-25T02:54:30;12.90;99.90
19920;DHT22;10122;50.074;19.920;2023-04-25T02:56:56;13.00;99.90
19920;DHT22;10122;50.074;19.920;2023-04-25T02:59:22;13.00;99.90
19920;DHT22;10122;50.074;19.920;2023-04-25T03:01:47;12.90;99.90
19920;DHT22;10122;50.074;19.920;2023-04-25T03:04:13;12.70;99.90
19920;DHT22;10122;50.074;19.920;2023-04-25T03:06:39;12.70;99.90
19920;DHT22;10122;50.074;19.920;2023-04-25T03:09:05;12.60;99.90
19920;DHT22;10122;50.074;19.920;2023-04-25T03:11:30;12.60;99.90
19920;DHT22;10122;50.074;19.920;2023-04-25T03:13:56;12.60;99.90
19920;DHT22;10122;50.074;19.920;2023-04-25T03:16:23;12.60;99.90
19920;DHT22;10122;50.074;19.920;2023-04-25T03:18:49;12.50;99.90
19920;DHT22;10122;50.074;19.920;2023-04-25T03:21:16;12.50;99.90
19920;DHT22;10122;50.074;19.920;2023-04-25T03:23:42;12.60;99.90
19920;DHT22;10122;50.074;19.920;2023-04-25T03:26:08;12.60;99.90
19920;DHT22;10122;50.074;19.920;2023-04-25T03:28:33;12.50;99.90
19920;DHT22;10122;50.074;19.920;2023-04-25T03:30:59;12.60;99.90
19920;DHT22;10122;50.074;19.920;2023-04-25T03:33:25;12.60;99.90
19920;DHT22;10122;50.074;19.920;2023-04-25T03:35:51;12.50;99.90
19920;DHT22;10122;50.074;19.920;2023-04-25T03:38:17;12.50;99.90
19920;DHT22;10122;50.074;19.920;2023-04-25T03:40:43;12.50;99.90
19920;DHT22;10122;50.074;19.920;2023-04-25T03:43:08;12.60;99.90
19920;DHT22;10122;50.074;19.920;2023-04-25T03:45:34;12.50;99.90
19920;DHT22;10122;50.074;19.920;2023-04-25T03:48:00;12.40;99.90
19920;DHT22;10122;50.074;19.920;2023-04-25T03:50:26;12.40;99.90
19920;DHT22;10122;50.074;19.920;2023-04-25T03:52:51;12.30;99.90
19920;DHT22;10122;50.074;19.920;2023-04-25T03:55:17;12.30;99.90
19920;DHT22;10122;50.074;19.920;2023-04-25T03:57:43;12.30;99.90
19920;DHT22;10122;50.074;19.920;2023-04-25T04:00:09;12.30;99.90
19920;DHT22;10122;50.074;19.920;2023-04-25T04:02:35;12.30;99.90
19920;DHT22;10122;50.074;19.920;2023-04-25T04:05:03;12.30;99.90
19920;DHT22;10122;50.074;19.920;2023-04-25T04:07:29;12.30;99.90
19920;DHT22;10122;50.074;19.920;2023-04-25T04:09:57;12.10;99.90
19920;DHT22;10122;50.074;19.920;2023-04-25T04:12:23;12.10;99.90
19920;DHT22;10122;50.074;19.920;2023-04-25T04:14:48;12.10;99.90
19920;DHT22;10122;50.074;19.920;2023-04-25T04:17:14;12.20;99.90
19920;DHT22;10122;50.074;19.920;2023-04-25T04:19:40;12.00;99.90
19920;DHT22;10122;50.074;19.920;2023-04-25T04:22:06;12.20;99.90
19920;DHT22;10122;50.074;19.920;2023-04-25T04:24:31;12.20;99.90
19920;DHT22;10122;50.074;19.920;2023-04-25T04:26:58;12.20;99.90
19920;DHT22;10122;50.074;19.920;2023-04-25T04:29:24;12.20;99.90
19920;DHT22;10122;50.074;19.920;2023-04-25T04:31:51;12.10;99.90
19920;DHT22;10122;50.074;19.920;2023-04-25T04:34:18;12.20;99.90
19920;DHT22;10122;50.074;19.920;2023-04-25T04:36:46;12.10;99.90
19920;DHT22;10122;50.074;19.920;2023-04-25T04:39:13;12.10;99.90
19920;DHT22;10122;50.074;19.920;2023-04-25T04:41:38;12.20;99.90
19920;DHT22;10122;50.074;19.920;2023-04-25T04:44:05;12.10;99.90
19920;DHT22;10122;50.074;19.920;2023-04-25T04:46:32;12.10;99.90
19920;DHT22;10122;50.074;19.920;2023-04-25T04:49:05;12.10;99.90
19920;DHT22;10122;50.074;19.920;2023-04-25T04:51:31;12.00;99.90
19920;DHT22;10122;50.074;19.920;2023-04-25T04:53:57;12.00;99.90
19920;DHT22;10122;50.074;19.920;2023-04-25T04:56:24;12.10;99.90
19920;DHT22;10122;50.074;19.920;2023-04-25T04:58:51;12.00;99.90
19920;DHT22;10122;50.074;19.920;2023-04-25T05:01:17;12.00;99.90
19920;DHT22;10122;50.074;19.920;2023-04-25T05:03:43;12.00;99.90
19920;DHT22;10122;50.074;19.920;2023-04-25T05:06:09;12.00;99.90
19920;DHT22;10122;50.074;19.920;2023-04-25T05:08:36;12.00;99.90
19920;DHT22;10122;50.074;19.920;2023-04-25T05:11:02;12.10;99.90
19920;DHT22;10122;50.074;19.920;2023-04-25T05:13:27;12.20;99.90
19920;DHT22;10122;50.074;19.920;2023-04-25T05:15:53;12.10;99.90
19920;DHT22;10122;50.074;19.920;2023-04-25T05:18:18;12.10;99.90
19920;DHT22;10122;50.074;19.920;2023-04-25T05:20:44;12.20;99.90
19920;DHT22;10122;50.074;19.920;2023-04-25T05:23:10;12.20;99.90
19920;DHT22;10122;50.074;19.920;2023-04-25T05:25:36;12.30;99.90
19920;DHT22;10122;50.074;19.920;2023-04-25T05:28:01;12.30;99.90
19920;DHT22;10122;50.074;19.920;2023-04-25T05:30:27;12.30;99.90
19920;DHT22;10122;50.074;19.920;2023-04-25T05:32:53;12.30;99.90
19920;DHT22;10122;50.074;19.920;2023-04-25T05:35:19;12.30;99.90
19920;DHT22;10122;50.074;19.920;2023-04-25T05:37:44;12.30;99.90
19920;DHT22;10122;50.074;19.920;2023-04-25T05:40:10;12.20;99.90
19920;DHT22;10122;50.074;19.920;2023-04-25T05:42:36;12.20;99.90
19920;DHT22;10122;50.074;19.920;2023-04-25T05:45:02;12.20;99.90
19920;DHT22;10122;50.074;19.920;2023-04-25T05:47:28;12.20;99.90
19920;DHT22;10122;50.074;19.920;2023-04-25T05:49:54;12.20;99.90
19920;DHT22;10122;50.074;19.920;2023-04-25T05:52:19;12.10;99.90
19920;DHT22;10122;50.074;19.920;2023-04-25T05:54:45;12.00;99.90
19920;DHT22;10122;50.074;19.920;2023-04-25T05:57:24;12.00;99.90
19920;DHT22;10122;50.074;19.920;2023-04-25T05:59:50;11.90;99.90
19920;DHT22;10122;50.074;19.920;2023-04-25T06:02:16;11.90;99.90
19920;DHT22;10122;50.074;19.920;2023-04-25T06:04:42;11.80;99.90
19920;DHT22;10122;50.074;19.920;2023-04-25T06:07:07;11.70;99.90
19920;DHT22;10122;50.074;19.920;2023-04-25T06:09:34;11.70;99.90
19920;DHT22;10122;50.074;19.920;2023-04-25T06:11:59;11.70;99.90
19920;DHT22;10122;50.074;19.920;2023-04-25T06:14:26;11.60;99.90
19920;DHT22;10122;50.074;19.920;2023-04-25T06:16:52;11.70;99.90
19920;DHT22;10122;50.074;19.920;2023-04-25T06:19:17;11.60;99.90
19920;DHT22;10122;50.074;19.920;2023-04-25T06:21:44;11.70;99.90
19920;DHT22;10122;50.074;19.920;2023-04-25T06:24:10;11.80;99.90
19920;DHT22;10122;50.074;19.920;2023-04-25T06:26:35;11.80;99.90
19920;DHT22;10122;50.074;19.920;2023-04-25T06:29:01;11.80;99.90
19920;DHT22;10122;50.074;19.920;2023-04-25T06:31:27;11.90;99.90
19920;DHT22;10122;50.074;19.920;2023-04-25T06:33:54;12.00;99.90
19920;DHT22;10122;50.074;19.920;2023-04-25T06:36:20;12.10;99.90
19920;DHT22;10122;50.074;19.920;2023-04-25T06:38:51;12.20;99.90
19920;DHT22;10122;50.074;19.920;2023-04-25T06:41:17;12.20;99.90
19920;DHT22;10122;50.074;19.920;2023-04-25T06:43:43;12.30;99.90
19920;DHT22;10122;50.074;19.920;2023-04-25T06:46:09;12.40;99.90
19920;DHT22;10122;50.074;19.920;2023-04-25T06:48:34;12.40;99.90
19920;DHT22;10122;50.074;19.920;2023-04-25T06:51:00;12.50;99.90
19920;DHT22;10122;50.074;19.920;2023-04-25T06:53:26;12.50;99.90
19920;DHT22;10122;50.074;19.920;2023-04-25T06:55:51;12.60;99.90
19920;DHT22;10122;50.074;19.920;2023-04-25T06:58:18;12.70;99.90
19920;DHT22;10122;50.074;19.920;2023-04-25T07:00:43;12.70;99.90
19920;DHT22;10122;50.074;19.920;2023-04-25T07:03:09;12.80;99.90
19920;DHT22;10122;50.074;19.920;2023-04-25T07:05:35;12.80;99.90
19920;DHT22;10122;50.074;19.920;2023-04-25T07:08:01;12.90;99.90
19920;DHT22;10122;50.074;19.920;2023-04-25T07:10:27;12.90;99.90
19920;DHT22;10122;50.074;19.920;2023-04-25T07:12:52;13.00;99.90
19920;DHT22;10122;50.074;19.920;2023-04-25T07:15:18;13.10;99.90
19920;DHT22;10122;50.074;19.920;2023-04-25T07:17:44;13.20;99.90
19920;DHT22;10122;50.074;19.920;2023-04-25T07:20:10;13.20;99.90
19920;DHT22;10122;50.074;19.920;2023-04-25T07:22:36;13.20;99.90
19920;DHT22;10122;50.074;19.920;2023-04-25T07:25:01;13.10;99.90
19920;DHT22;10122;50.074;19.920;2023-04-25T07:27:28;13.10;99.90
19920;DHT22;10122;50.074;19.920;2023-04-25T07:29:53;13.20;99.90
19920;DHT22;10122;50.074;19.920;2023-04-25T07:32:19;13.20;99.90
19920;DHT22;10122;50.074;19.920;2023-04-25T07:34:45;13.50;99.90
19920;DHT22;10122;50.074;19.920;2023-04-25T07:37:11;13.60;99.90
19920;DHT22;10122;50.074;19.920;2023-04-25T07:39:36;13.70;99.90
19920;DHT22;10122;50.074;19.920;2023-04-25T07:42:03;13.50;99.90
19920;DHT22;10122;50.074;19.920;2023-04-25T07:44:29;13.50;99.90
19920;DHT22;10122;50.074;19.920;2023-04-25T07:46:56;13.40;99.90
19920;DHT22;10122;50.074;19.920;2023-04-25T07:49:21;13.50;99.90
19920;DHT22;10122;50.074;19.920;2023-04-25T07:51:47;13.50;99.90
19920;DHT22;10122;50.074;19.920;2023-04-25T07:54:14;13.50;99.90
19920;DHT22;10122;50.074;19.920;2023-04-25T07:56:41;13.50;99.90
19920;DHT22;10122;50.074;19.920;2023-04-25T07:59:06;13.60;99.90
19920;DHT22;10122;50.074;19.920;2023-04-25T08:01:33;13.80;99.90
19920;DHT22;10122;50.074;19.920;2023-04-25T08:03:59;13.80;99.90
19920;DHT22;10122;50.074;19.920;2023-04-25T08:06:25;13.80;99.90
19920;DHT22;10122;50.074;19.920;2023-04-25T08:08:51;13.80;99.90
19920;DHT22;10122;50.074;19.920;2023-04-25T08:11:17;13.80;99.90
19920;DHT22;10122;50.074;19.920;2023-04-25T08:13:42;13.80;99.90
19920;DHT22;10122;50.074;19.920;2023-04-25T08:16:08;13.80;99.90
19920;DHT22;10122;50.074;19.920;2023-04-25T08:18:34;13.90;99.90
19920;DHT22;10122;50.074;19.920;2023-04-25T08:20:59;13.90;99.90
19920;DHT22;10122;50.074;19.920;2023-04-25T08:23:25;13.80;99.90
19920;DHT22;10122;50.074;19.920;2023-04-25T08:25:51;13.80;99.90
19920;DHT22;10122;50.074;19.920;2023-04-25T08:28:16;13.80;99.90
19920;DHT22;10122;50.074;19.920;2023-04-25T08:30:42;13.90;99.90
19920;DHT22;10122;50.074;19.920;2023-04-25T08:33:08;13.90;99.90
19920;DHT22;10122;50.074;19.920;2023-04-25T08:35:34;13.90;99.90
19920;DHT22;10122;50.074;19.920;2023-04-25T08:37:59;14.00;99.90
19920;DHT22;10122;50.074;19.920;2023-04-25T08:40:27;14.00;99.90
19920;DHT22;10122;50.074;19.920;2023-04-25T08:42:57;14.00;99.90
19920;DHT22;10122;50.074;19.920;2023-04-25T08:45:23;14.00;99.90
19920;DHT22;10122;50.074;19.920;2023-04-25T08:47:52;13.90;99.90
19920;DHT22;10122;50.074;19.920;2023-04-25T08:50:18;13.90;99.90
19920;DHT22;10122;50.074;19.920;2023-04-25T08:52:47;13.80;99.90
19920;DHT22;10122;50.074;19.920;2023-04-25T08:55:13;13.80;99.90
19920;DHT22;10122;50.074;19.920;2023-04-25T08:57:42;13.80;99.90
19920;DHT22;10122;50.074;19.920;2023-04-25T09:00:09;13.80;99.90
19920;DHT22;10122;50.074;19.920;2023-04-25T09:02:35;13.90;99.90
19920;DHT22;10122;50.074;19.920;2023-04-25T09:05:02;13.90;99.90
19920;DHT22;10122;50.074;19.920;2023-04-25T09:07:30;13.90;99.90
19920;DHT22;10122;50.074;19.920;2023-04-25T09:09:55;13.90;99.90
19920;DHT22;10122;50.074;19.920;2023-04-25T09:12:21;13.90;99.90
19920;DHT22;10122;50.074;19.920;2023-04-25T09:15:14;13.90;99.90
19920;DHT22;10122;50.074;19.920;2023-04-25T09:17:41;13.90;99.90
19920;DHT22;10122;50.074;19.920;2023-04-25T09:20:12;13.80;99.90
19920;DHT22;10122;50.074;19.920;2023-04-25T09:22:38;13.70;99.90
19920;DHT22;10122;50.074;19.920;2023-04-25T09:25:11;13.70;99.90
19920;DHT22;10122;50.074;19.920;2023-04-25T09:27:50;13.70;99.90
19920;DHT22;10122;50.074;19.920;2023-04-25T09:30:17;13.50;99.90
19920;DHT22;10122;50.074;19.920;2023-04-25T09:32:43;13.50;99.90
19920;DHT22;10122;50.074;19.920;2023-04-25T09:35:10;13.40;99.90
19920;DHT22;10122;50.074;19.920;2023-04-25T09:37:36;13.40;99.90
19920;DHT22;10122;50.074;19.920;2023-04-25T09:40:05;13.40;99.90
19920;DHT22;10122;50.074;19.920;2023-04-25T09:42:32;13.40;99.90
19920;DHT22;10122;50.074;19.920;2023-04-25T09:45:01;13.60;99.90
19920;DHT22;10122;50.074;19.920;2023-04-25T09:47:27;13.60;99.90
19920;DHT22;10122;50.074;19.920;2023-04-25T09:49:54;13.60;99.90
19920;DHT22;10122;50.074;19.920;2023-04-25T09:52:24;13.70;99.90
19920;DHT22;10122;50.074;19.920;2023-04-25T09:54:51;13.60;99.90
19920;DHT22;10122;50.074;19.920;2023-04-25T09:57:19;13.60;99.90
19920;DHT22;10122;50.074;19.920;2023-04-25T09:59:48;13.60;99.90
19920;DHT22;10122;50.074;19.920;2023-04-25T10:02:16;13.60;99.90
19920;DHT22;10122;50.074;19.920;2023-04-25T10:04:44;13.50;99.90
19920;DHT22;10122;50.074;19.920;2023-04-25T10:07:11;13.50;99.90
19920;DHT22;10122;50.074;19.920;2023-04-25T10:09:39;13.60;99.90
19920;DHT22;10122;50.074;19.920;2023-04-25T10:12:08;13.60;99.90
19920;DHT22;10122;50.074;19.920;2023-04-25T10:14:34;13.70;99.90
19920;DHT22;10122;50.074;19.920;2023-04-25T10:17:01;13.80;99.90
19920;DHT22;10122;50.074;19.920;2023-04-25T10:19:28;13.90;99.90
19920;DHT22;10122;50.074;19.920;2023-04-25T10:22:17;14.00;99.90
19920;DHT22;10122;50.074;19.920;2023-04-25T10:24:44;14.10;99.90
19920;DHT22;10122;50.074;19.920;2023-04-25T10:27:12;14.20;99.90
19920;DHT22;10122;50.074;19.920;2023-04-25T10:29:38;14.20;99.90
19920;DHT22;10122;50.074;19.920;2023-04-25T10:32:08;14.30;99.90
19920;DHT22;10122;50.074;19.920;2023-04-25T10:34:40;14.30;99.90
19920;DHT22;10122;50.074;19.920;2023-04-25T10:37:09;14.20;99.90
19920;DHT22;10122;50.074;19.920;2023-04-25T10:39:35;14.20;99.90
19920;DHT22;10122;50.074;19.920;2023-04-25T10:42:02;14.20;99.90
19920;DHT22;10122;50.074;19.920;2023-04-25T10:44:31;14.20;99.90
19920;DHT22;10122;50.074;19.920;2023-04-25T10:46:59;14.20;99.90
19920;DHT22;10122;50.074;19.920;2023-04-25T10:54:42;14.40;99.90
19920;DHT22;10122;50.074;19.920;2023-04-25T10:57:29;14.50;99.90
19920;DHT22;10122;50.074;19.920;2023-04-25T11:02:42;14.70;99.90
19920;DHT22;10122;50.074;19.920;2023-04-25T11:05:14;14.90;99.90
19920;DHT22;10122;50.074;19.920;2023-04-25T11:07:50;14.90;99.90
19920;DHT22;10122;50.074;19.920;2023-04-25T11:10:17;14.90;99.90
19920;DHT22;10122;50.074;19.920;2023-04-25T11:12:45;14.90;99.90
19920;DHT22;10122;50.074;19.920;2023-04-25T11:15:11;14.90;99.90
19920;DHT22;10122;50.074;19.920;2023-04-25T11:17:36;15.10;99.90
19920;DHT22;10122;50.074;19.920;2023-04-25T11:20:02;15.20;99.90
19920;DHT22;10122;50.074;19.920;2023-04-25T11:22:33;15.20;99.90
19920;DHT22;10122;50.074;19.920;2023-04-25T11:25:05;15.20;99.90
19920;DHT22;10122;50.074;19.920;2023-04-25T11:27:31;15.20;99.90
19920;DHT22;10122;50.074;19.920;2023-04-25T11:29:56;15.10;99.90
19920;DHT22;10122;50.074;19.920;2023-04-25T11:32:23;15.00;99.90
19920;DHT22;10122;50.074;19.920;2023-04-25T11:34:49;15.00;99.90
19920;DHT22;10122;50.074;19.920;2023-04-25T11:37:15;15.00;99.90
19920;DHT22;10122;50.074;19.920;2023-04-25T11:39:47;15.00;99.90
19920;DHT22;10122;50.074;19.920;2023-04-25T11:42:13;15.00;99.90
19920;DHT22;10122;50.074;19.920;2023-04-25T11:44:39;15.10;99.90
19920;DHT22;10122;50.074;19.920;2023-04-25T11:47:06;15.10;99.90
19920;DHT22;10122;50.074;19.920;2023-04-25T11:49:32;15.00;99.90
19920;DHT22;10122;50.074;19.920;2023-04-25T11:51:57;14.90;99.90
19920;DHT22;10122;50.074;19.920;2023-04-25T11:54:23;14.70;99.90
19920;DHT22;10122;50.074;19.920;2023-04-25T11:56:49;14.50;99.90
19920;DHT22;10122;50.074;19.920;2023-04-25T11:59:15;14.40;99.90
19920;DHT22;10122;50.074;19.920;2023-04-25T12:01:49;14.40;99.90
19920;DHT22;10122;50.074;19.920;2023-04-25T12:04:20;14.30;99.90
19920;DHT22;10122;50.074;19.920;2023-04-25T12:06:51;14.20;99.90
19920;DHT22;10122;50.074;19.920;2023-04-25T12:09:21;14.20;99.90
19920;DHT22;10122;50.074;19.920;2023-04-25T12:11:56;14.20;99.90
19920;DHT22;10122;50.074;19.920;2023-04-25T12:14:33;14.10;99.90
19920;DHT22;10122;50.074;19.920;2023-04-25T12:17:01;14.10;99.90
19920;DHT22;10122;50.074;19.920;2023-04-25T12:19:37;14.10;99.90
19920;DHT22;10122;50.074;19.920;2023-04-25T12:22:20;14.10;99.90
19920;DHT22;10122;50.074;19.920;2023-04-25T12:24:46;14.00;99.90
19920;DHT22;10122;50.074;19.920;2023-04-25T12:27:15;14.00;99.90
19920;DHT22;10122;50.074;19.920;2023-04-25T12:29:52;14.00;99.90
19920;DHT22;10122;50.074;19.920;2023-04-25T12:32:18;13.90;99.90
19920;DHT22;10122;50.074;19.920;2023-04-25T12:34:44;13.90;99.90
19920;DHT22;10122;50.074;19.920;2023-04-25T12:37:10;13.90;99.90
19920;DHT22;10122;50.074;19.920;2023-04-25T12:39:37;13.90;99.90
19920;DHT22;10122;50.074;19.920;2023-04-25T12:42:02;13.80;99.90
19920;DHT22;10122;50.074;19.920;2023-04-25T12:44:28;13.70;99.90
19920;DHT22;10122;50.074;19.920;2023-04-25T12:46:54;13.70;99.90
19920;DHT22;10122;50.074;19.920;2023-04-25T12:49:20;13.70;99.90
19920;DHT22;10122;50.074;19.920;2023-04-25T12:51:46;13.80;99.90
19920;DHT22;10122;50.074;19.920;2023-04-25T12:54:12;13.80;99.90
19920;DHT22;10122;50.074;19.920;2023-04-25T12:56:40;13.70;99.90
19920;DHT22;10122;50.074;19.920;2023-04-25T12:59:06;13.70;99.90
19920;DHT22;10122;50.074;19.920;2023-04-25T13:01:32;13.70;99.90
19920;DHT22;10122;50.074;19.920;2023-04-25T13:03:58;13.70;99.90
19920;DHT22;10122;50.074;19.920;2023-04-25T13:06:23;13.80;99.90
19920;DHT22;10122;50.074;19.920;2023-04-25T13:08:49;13.70;99.90
19920;DHT22;10122;50.074;19.920;2023-04-25T13:11:15;13.50;99.90
19920;DHT22;10122;50.074;19.920;2023-04-25T13:13:41;13.50;99.90
19920;DHT22;10122;50.074;19.920;2023-04-25T13:16:08;13.60;99.90
19920;DHT22;10122;50.074;19.920;2023-04-25T13:18:34;13.50;99.90
19920;DHT22;10122;50.074;19.920;2023-04-25T13:21:00;13.40;99.90
19920;DHT22;10122;50.074;19.920;2023-04-25T13:23:27;13.50;99.90
19920;DHT22;10122;50.074;19.920;2023-04-25T13:25:53;13.50;99.90
19920;DHT22;10122;50.074;19.920;2023-04-25T13:28:20;13.50;99.90
19920;DHT22;10122;50.074;19.920;2023-04-25T13:30:47;13.50;99.90
19920;DHT22;10122;50.074;19.920;2023-04-25T13:33:14;13.50;99.90
19920;DHT22;10122;50.074;19.920;2023-04-25T13:35:40;13.60;99.90
19920;DHT22;10122;50.074;19.920;2023-04-25T13:38:06;13.60;99.90
19920;DHT22;10122;50.074;19.920;2023-04-25T13:40:32;13.70;99.90
19920;DHT22;10122;50.074;19.920;2023-04-25T13:42:58;13.80;99.90
19920;DHT22;10122;50.074;19.920;2023-04-25T13:45:24;13.90;99.90
19920;DHT22;10122;50.074;19.920;2023-04-25T13:47:50;13.90;99.90
19920;DHT22;10122;50.074;19.920;2023-04-25T13:50:16;13.90;99.90
19920;DHT22;10122;50.074;19.920;2023-04-25T13:52:42;13.90;99.90
19920;DHT22;10122;50.074;19.920;2023-04-25T13:55:09;13.90;99.90
19920;DHT22;10122;50.074;19.920;2023-04-25T13:57:35;13.90;99.90
19920;DHT22;10122;50.074;19.920;2023-04-25T14:00:02;13.90;99.90
19920;DHT22;10122;50.074;19.920;2023-04-25T14:02:37;13.90;99.90
19920;DHT22;10122;50.074;19.920;2023-04-25T14:05:04;13.80;99.90
19920;DHT22;10122;50.074;19.920;2023-04-25T14:07:30;13.90;99.90
19920;DHT22;10122;50.074;19.920;2023-04-25T14:09:57;13.90;99.90
19920;DHT22;10122;50.074;19.920;2023-04-25T14:12:23;14.20;99.90
19920;DHT22;10122;50.074;19.920;2023-04-25T14:14:49;14.30;99.90
19920;DHT22;10122;50.074;19.920;2023-04-25T14:17:14;14.40;99.90
19920;DHT22;10122;50.074;19.920;2023-04-25T14:19:40;14.40;99.90
19920;DHT22;10122;50.074;19.920;2023-04-25T14:22:10;14.40;99.90
19920;DHT22;10122;50.074;19.920;2023-04-25T14:24:36;14.40;99.90
19920;DHT22;10122;50.074;19.920;2023-04-25T14:27:02;14.40;99.90
19920;DHT22;10122;50.074;19.920;2023-04-25T14:29:28;14.40;99.90
19920;DHT22;10122;50.074;19.920;2023-04-25T14:31:53;14.30;99.90
19920;DHT22;10122;50.074;19.920;2023-04-25T14:34:19;14.30;99.90
19920;DHT22;10122;50.074;19.920;2023-04-25T14:36:45;14.20;99.90
19920;DHT22;10122;50.074;19.920;2023-04-25T14:39:12;14.10;99.90
19920;DHT22;10122;50.074;19.920;2023-04-25T14:41:39;14.00;99.90
19920;DHT22;10122;50.074;19.920;2023-04-25T14:44:05;13.90;99.90
19920;DHT22;10122;50.074;19.920;2023-04-25T14:46:31;14.00;99.90
19920;DHT22;10122;50.074;19.920;2023-04-25T14:48:56;14.00;99.90
19920;DHT22;10122;50.074;19.920;2023-04-25T14:51:22;13.90;99.90
19920;DHT22;10122;50.074;19.920;2023-04-25T14:53:48;13.80;99.90
19920;DHT22;10122;50.074;19.920;2023-04-25T14:56:14;13.80;99.90
19920;DHT22;10122;50.074;19.920;2023-04-25T14:58:40;13.90;99.90
19920;DHT22;10122;50.074;19.920;2023-04-25T15:01:06;13.80;99.90
19920;DHT22;10122;50.074;19.920;2023-04-25T15:03:32;13.80;99.90
19920;DHT22;10122;50.074;19.920;2023-04-25T15:05:58;13.70;99.90
19920;DHT22;10122;50.074;19.920;2023-04-25T15:08:24;13.60;99.90
19920;DHT22;10122;50.074;19.920;2023-04-25T15:10:50;13.50;99.90
19920;DHT22;10122;50.074;19.920;2023-04-25T15:13:17;13.50;99.90
19920;DHT22;10122;50.074;19.920;2023-04-25T15:15:43;13.50;99.90
19920;DHT22;10122;50.074;19.920;2023-04-25T15:18:09;13.60;99.90
19920;DHT22;10122;50.074;19.920;2023-04-25T15:20:34;13.60;99.90